createdAt,value
2023-05-01T00:01:26.521Z,77389.69
2023-05-01T00:03:54.631Z,77395.81
2023-05-01T00:06:21.171Z,77397.84
2023-05-01T00:08:47.667Z,77399.91
2023-05-01T00:11:14.172Z,77389.69
2023-05-01T00:13:40.526Z,77401.94
2023-05-01T00:16:11.356Z,77395.81
2023-05-01T00:18:38.315Z,77406.00
2023-05-01T00:21:04.785Z,77403.97
2023-05-01T00:23:31.125Z,77406.00
2023-05-01T00:25:57.510Z,77403.97
2023-05-01T00:28:23.895Z,77412.13
2023-05-01T00:30:50.654Z,77420.28
2023-05-01T00:33:16.984Z,77420.28
2023-05-01T00:35:46.768Z,77420.28
2023-05-01T00:38:13.383Z,77424.38
2023-05-01T00:40:44.757Z,77422.34
2023-05-01T00:43:12.234Z,77428.44
2023-05-01T00:45:40.555Z,77430.50
2023-05-01T00:48:07.143Z,77434.56
2023-05-01T00:50:34.037Z,77446.81
2023-05-01T00:53:00.511Z,77446.81
2023-05-01T00:55:26.976Z,77446.81
2023-05-01T00:57:55.054Z,77442.72
2023-05-01T01:00:24.422Z,77442.72
2023-05-01T01:02:51.928Z,77442.72
2023-05-01T01:05:21.645Z,77440.69
2023-05-01T01:07:54.542Z,77452.91
2023-05-01T01:10:58.447Z,77446.81
2023-05-01T01:13:30.036Z,77442.72
2023-05-01T01:16:03.418Z,77459.03
2023-05-01T01:18:56.364Z,77459.03
2023-05-01T01:21:38.047Z,77465.16
2023-05-01T01:24:35.470Z,77465.16
2023-05-01T01:27:29.484Z,77473.31
2023-05-01T01:30:44.137Z,77481.47
2023-05-01T01:33:28.839Z,77477.41
2023-05-01T01:35:58.028Z,77465.16
2023-05-01T01:38:40.424Z,77465.16
2023-05-01T01:41:13.700Z,77465.16
2023-05-01T01:43:47.579Z,77469.25
2023-05-01T01:46:17.672Z,77463.13
2023-05-01T01:48:49.046Z,77475.34
2023-05-01T01:51:19.236Z,77461.09
2023-05-01T01:53:51.738Z,77459.03
2023-05-01T01:56:22.023Z,77444.75
2023-05-01T01:58:52.696Z,77434.56
2023-05-01T02:01:21.000Z,77444.75
2023-05-01T02:03:48.592Z,77438.66
2023-05-01T02:06:17.554Z,77436.59
2023-05-01T02:08:46.387Z,77424.38
2023-05-01T02:11:15.697Z,77424.38
2023-05-01T02:13:43.314Z,77420.28
2023-05-01T02:16:11.357Z,77420.28
2023-05-01T02:18:38.404Z,77410.09
2023-05-01T02:21:05.257Z,77412.13
2023-05-01T02:23:36.901Z,77410.09
2023-05-01T02:26:04.359Z,77410.09
2023-05-01T02:28:32.068Z,77408.06
2023-05-01T02:30:59.029Z,77410.09
2023-05-01T02:33:27.515Z,77399.91
2023-05-01T02:35:53.906Z,77397.84
2023-05-01T02:38:20.426Z,77401.94
2023-05-01T02:40:51.183Z,77397.84
2023-05-01T02:43:20.856Z,77395.81
2023-05-01T02:45:49.277Z,77387.66
2023-05-01T02:48:21.548Z,77395.81
2023-05-01T02:50:49.320Z,77395.81
2023-05-01T02:53:16.464Z,77387.66
2023-05-01T02:55:49.284Z,77383.59
2023-05-01T02:58:19.467Z,77389.69
2023-05-01T03:00:48.126Z,77385.63
2023-05-01T03:03:15.743Z,77385.63
2023-05-01T03:05:42.379Z,77365.22
2023-05-01T03:08:09.925Z,77385.63
2023-05-01T03:10:36.373Z,77377.47
2023-05-01T03:13:03.576Z,77367.25
2023-05-01T03:15:29.960Z,77363.19
2023-05-01T03:17:56.386Z,77369.31
2023-05-01T03:20:22.856Z,77363.19
2023-05-01T03:22:49.299Z,77359.09
2023-05-01T03:25:15.860Z,77369.31
2023-05-01T03:27:42.418Z,77357.06
2023-05-01T03:30:10.112Z,77361.16
2023-05-01T03:32:39.927Z,77361.16
2023-05-01T03:35:10.948Z,77357.06
2023-05-01T03:37:37.709Z,77359.09
2023-05-01T03:40:04.544Z,77353.00
2023-05-01T03:42:49.390Z,77350.94
2023-05-01T03:45:20.248Z,77344.84
2023-05-01T03:47:47.006Z,77350.94
2023-05-01T03:50:14.631Z,77348.91
2023-05-01T03:52:43.908Z,77342.78
2023-05-01T03:55:10.369Z,77346.88
2023-05-01T03:57:47.042Z,77355.03
2023-05-01T04:00:13.733Z,77359.09
2023-05-01T04:02:43.632Z,77359.09
2023-05-01T04:05:14.942Z,77361.16
2023-05-01T04:07:46.353Z,77361.16
2023-05-01T04:10:12.793Z,77365.22
2023-05-01T04:12:46.158Z,77361.16
2023-05-01T04:15:15.444Z,77363.19
2023-05-01T04:17:43.803Z,77350.94
2023-05-01T04:20:11.060Z,77359.09
2023-05-01T04:22:38.010Z,77350.94
2023-05-01T04:25:04.734Z,77348.91
2023-05-01T04:27:31.658Z,77355.03
2023-05-01T04:29:58.612Z,77353.00
2023-05-01T04:32:25.451Z,77363.19
2023-05-01T04:34:52.086Z,77365.22
2023-05-01T04:37:18.683Z,77357.06
2023-05-01T04:39:45.263Z,77363.19
2023-05-01T04:42:11.818Z,77363.19
2023-05-01T04:44:39.029Z,77359.09
2023-05-01T04:47:06.140Z,77365.22
2023-05-01T04:49:32.795Z,77357.06
2023-05-01T04:51:59.263Z,77355.03
2023-05-01T04:54:33.336Z,77350.94
2023-05-01T04:56:59.781Z,77355.03
2023-05-01T04:59:26.656Z,77355.03
2023-05-01T05:01:54.931Z,77357.06
2023-05-01T05:04:22.218Z,77359.09
2023-05-01T05:06:49.442Z,77361.16
2023-05-01T05:09:21.476Z,77359.09
2023-05-01T05:11:47.978Z,77355.03
2023-05-01T05:14:20.807Z,77340.75
2023-05-01T05:16:47.218Z,77353.00
2023-05-01T05:19:13.750Z,77348.91
2023-05-01T05:21:42.314Z,77350.94
2023-05-01T05:24:08.714Z,77355.03
2023-05-01T05:26:35.090Z,77338.72
2023-05-01T05:29:03.024Z,77340.75
2023-05-01T05:31:29.636Z,77322.41
2023-05-01T05:33:56.157Z,77318.31
2023-05-01T05:36:24.723Z,77314.25
2023-05-01T05:38:51.183Z,77302.00
2023-05-01T05:41:19.016Z,77291.81
2023-05-01T05:43:47.103Z,77285.69
2023-05-01T05:46:13.524Z,77273.44
2023-05-01T05:48:41.456Z,77275.50
2023-05-01T05:51:07.889Z,77263.25
2023-05-01T05:53:34.466Z,77251.03
2023-05-01T05:56:00.889Z,77251.03
2023-05-01T05:58:27.546Z,77232.66
2023-05-01T06:00:55.598Z,77228.59
2023-05-01T06:03:22.952Z,77228.59
2023-05-01T06:05:51.779Z,77220.44
2023-05-01T06:08:18.348Z,77202.06
2023-05-01T06:10:44.866Z,77202.06
2023-05-01T06:13:13.972Z,77198.00
2023-05-01T06:15:45.196Z,77187.78
2023-05-01T06:18:12.024Z,77185.75
2023-05-01T06:20:38.827Z,77165.38
2023-05-01T06:23:05.537Z,77157.22
2023-05-01T06:25:40.839Z,77144.97
2023-05-01T06:28:07.250Z,77134.78
2023-05-01T06:30:34.633Z,77126.63
2023-05-01T06:33:02.283Z,77110.31
2023-05-01T06:35:29.004Z,77104.19
2023-05-01T06:37:56.012Z,77098.06
2023-05-01T06:40:22.507Z,77077.69
2023-05-01T06:42:49.100Z,77065.44
2023-05-01T06:45:15.624Z,77045.03
2023-05-01T06:47:42.465Z,77030.78
2023-05-01T06:50:09.741Z,77016.50
2023-05-01T06:52:36.131Z,77000.19
2023-05-01T06:55:03.680Z,76985.91
2023-05-01T06:57:30.032Z,76969.59
2023-05-01T06:59:56.689Z,76949.19
2023-05-01T07:02:23.252Z,76934.94
2023-05-01T07:04:49.686Z,76916.56
2023-05-01T07:07:16.061Z,76902.28
2023-05-01T07:09:42.412Z,76890.06
2023-05-01T07:12:08.842Z,76879.88
2023-05-01T07:14:35.745Z,76867.63
2023-05-01T07:17:02.510Z,76863.56
2023-05-01T07:19:29.174Z,76832.97
2023-05-01T07:21:55.678Z,76824.81
2023-05-01T07:24:22.360Z,76812.56
2023-05-01T07:26:48.856Z,76794.22
2023-05-01T07:29:16.460Z,76782.00
2023-05-01T07:31:43.813Z,76769.75
2023-05-01T07:34:10.285Z,76753.44
2023-05-01T07:36:36.762Z,76733.03
2023-05-01T07:39:04.043Z,76716.72
2023-05-01T07:41:31.459Z,76716.72
2023-05-01T07:44:00.746Z,76690.22
2023-05-01T07:46:27.308Z,76678.00
2023-05-01T07:48:53.821Z,76667.78
2023-05-01T07:51:20.277Z,76645.38
2023-05-01T07:53:47.303Z,76641.28
2023-05-01T07:56:13.753Z,76622.94
2023-05-01T07:58:42.439Z,76614.78
2023-05-01T08:01:09.127Z,76598.47
2023-05-01T08:03:35.790Z,76582.16
2023-05-01T08:06:02.409Z,76571.97
2023-05-01T08:08:28.829Z,76557.69
2023-05-01T08:10:55.218Z,76553.59
2023-05-01T08:13:21.754Z,76543.41
2023-05-01T08:15:48.772Z,76525.06
2023-05-01T08:18:21.107Z,76508.75
2023-05-01T08:20:48.233Z,76492.44
2023-05-01T08:23:18.001Z,76480.19
2023-05-01T08:25:46.815Z,76476.13
2023-05-01T08:28:14.650Z,76463.88
2023-05-01T08:30:41.179Z,76447.56
2023-05-01T08:33:07.697Z,76433.31
2023-05-01T08:35:34.190Z,76404.75
2023-05-01T08:38:01.584Z,76402.72
2023-05-01T08:40:32.294Z,76398.66
2023-05-01T08:43:01.620Z,76392.53
2023-05-01T08:45:35.733Z,76376.22
2023-05-01T08:48:05.692Z,76361.94
2023-05-01T08:50:36.311Z,76341.56
2023-05-01T08:53:04.643Z,76321.16
2023-05-01T08:55:32.452Z,76308.94
2023-05-01T08:57:59.815Z,76302.81
2023-05-01T09:00:27.263Z,76286.50
2023-05-01T09:02:55.134Z,76272.22
2023-05-01T09:05:21.564Z,76245.72
2023-05-01T09:07:48.416Z,76247.75
2023-05-01T09:10:21.342Z,76235.53
2023-05-01T09:12:54.092Z,76223.28
2023-05-01T09:15:21.459Z,76198.81
2023-05-01T09:17:48.116Z,76172.31
2023-05-01T09:20:15.555Z,76143.78
2023-05-01T09:22:41.966Z,76119.31
2023-05-01T09:25:10.290Z,76107.09
2023-05-01T09:27:37.998Z,76088.72
2023-05-01T09:30:06.561Z,76094.84
2023-05-01T09:32:33.445Z,76100.97
2023-05-01T09:35:13.513Z,76072.44
2023-05-01T09:37:40.230Z,76033.69
2023-05-01T09:40:08.491Z,76045.91
2023-05-01T09:42:48.718Z,76062.22
2023-05-01T09:45:15.920Z,76086.69
2023-05-01T09:47:43.955Z,76082.63
2023-05-01T09:50:12.541Z,76072.44
2023-05-01T09:52:38.990Z,76072.44
2023-05-01T09:55:19.062Z,76060.19
2023-05-01T09:57:47.096Z,76037.75
2023-05-01T10:00:15.457Z,76003.09
2023-05-01T10:02:44.291Z,75974.56
2023-05-01T10:05:11.695Z,75980.69
2023-05-01T10:07:39.170Z,76011.25
2023-05-01T10:10:35.200Z,76017.38
2023-05-01T10:13:15.230Z,76027.56
2023-05-01T10:15:41.666Z,76037.75
2023-05-01T10:18:11.362Z,76039.81
2023-05-01T10:20:37.826Z,76041.84
2023-05-01T10:23:04.304Z,76052.03
2023-05-01T10:25:31.840Z,76037.75
2023-05-01T10:27:59.236Z,76035.72
2023-05-01T10:30:29.848Z,76047.97
2023-05-01T10:32:56.383Z,76045.91
2023-05-01T10:35:27.778Z,76070.38
2023-05-01T10:38:01.802Z,76072.44
2023-05-01T10:40:40.519Z,76060.19
2023-05-01T10:43:26.328Z,76045.91
2023-05-01T10:45:54.553Z,76035.72
2023-05-01T10:48:45.252Z,76023.50
2023-05-01T10:51:17.205Z,76013.28
2023-05-01T10:53:48.212Z,76015.34
2023-05-01T10:56:32.720Z,76011.25
2023-05-01T10:59:00.804Z,76007.19
2023-05-01T11:01:40.316Z,75999.03
2023-05-01T11:04:19.550Z,75984.75
2023-05-01T11:06:58.173Z,76015.34
2023-05-01T11:09:49.159Z,76015.34
2023-05-01T11:12:36.641Z,76013.28
2023-05-01T11:15:05.317Z,75992.91
2023-05-01T11:17:41.036Z,75970.47
2023-05-01T11:20:11.625Z,75974.56
2023-05-01T11:22:40.727Z,75964.38
2023-05-01T11:25:27.947Z,75927.66
2023-05-01T11:27:56.969Z,75899.13
2023-05-01T11:30:23.768Z,75862.44
2023-05-01T11:32:51.881Z,75862.44
2023-05-01T11:35:23.478Z,75842.03
2023-05-01T11:37:57.025Z,75819.63
2023-05-01T11:40:27.775Z,75803.31
2023-05-01T11:43:20.413Z,75821.66
2023-05-01T11:45:52.662Z,75803.31
2023-05-01T11:48:20.889Z,75793.13
2023-05-01T11:50:47.376Z,75782.94
2023-05-01T11:53:18.566Z,75799.22
2023-05-01T11:55:45.425Z,75809.44
2023-05-01T11:58:12.420Z,75799.22
2023-05-01T12:00:41.580Z,75795.16
2023-05-01T12:03:14.402Z,75780.88
2023-05-01T12:05:43.263Z,75776.81
2023-05-01T12:08:21.058Z,75766.63
2023-05-01T12:10:52.874Z,75752.34
2023-05-01T12:13:20.519Z,75756.41
2023-05-01T12:15:48.512Z,75762.53
2023-05-01T12:18:17.352Z,75780.88
2023-05-01T12:20:52.379Z,75766.63
2023-05-01T12:23:39.114Z,75738.06
2023-05-01T12:26:27.562Z,75736.03
2023-05-01T12:28:53.921Z,75748.28
2023-05-01T12:31:21.019Z,75721.75
2023-05-01T12:33:57.416Z,75740.13
2023-05-01T12:36:27.236Z,75784.97
2023-05-01T12:39:02.813Z,75829.81
2023-05-01T12:41:41.084Z,75846.13
2023-05-01T12:44:30.606Z,75866.50
2023-05-01T12:47:04.222Z,75872.63
2023-05-01T12:49:32.283Z,75866.50
2023-05-01T12:52:03.605Z,75844.09
2023-05-01T12:54:32.141Z,75860.41
2023-05-01T12:57:15.652Z,75876.69
2023-05-01T12:59:44.765Z,75870.59
2023-05-01T13:02:17.042Z,75874.66
2023-05-01T13:04:44.324Z,75895.06
2023-05-01T13:07:18.602Z,75909.31
2023-05-01T13:09:55.341Z,75925.63
2023-05-01T13:12:23.359Z,75931.75
2023-05-01T13:14:50.729Z,75929.72
2023-05-01T13:17:23.151Z,75931.75
2023-05-01T13:19:54.505Z,75925.63
2023-05-01T13:22:32.609Z,75919.50
2023-05-01T13:24:59.545Z,75925.63
2023-05-01T13:27:26.198Z,75931.75
2023-05-01T13:29:58.902Z,75905.25
2023-05-01T13:32:26.617Z,75880.78
2023-05-01T13:34:54.173Z,75858.34
2023-05-01T13:37:21.306Z,75860.41
2023-05-01T13:39:48.271Z,75846.13
2023-05-01T13:42:25.582Z,75848.16
2023-05-01T13:44:53.972Z,75819.63
2023-05-01T13:47:20.681Z,75782.94
2023-05-01T13:49:48.638Z,75787.00
2023-05-01T13:52:17.656Z,75811.47
2023-05-01T13:54:44.495Z,75799.22
2023-05-01T13:57:11.328Z,75795.16
2023-05-01T13:59:42.424Z,75772.72
2023-05-01T14:02:24.890Z,75748.28
2023-05-01T14:04:51.648Z,75748.28
2023-05-01T14:07:20.224Z,75750.31
2023-05-01T14:09:56.896Z,75766.63
2023-05-01T14:12:29.440Z,75807.38
2023-05-01T14:14:56.685Z,75819.63
2023-05-01T14:17:35.758Z,75848.16
2023-05-01T14:20:02.519Z,75890.97
2023-05-01T14:22:30.526Z,75903.22
2023-05-01T14:24:57.591Z,75911.38
2023-05-01T14:27:24.108Z,75893.00
2023-05-01T14:29:50.792Z,75866.50
2023-05-01T14:32:17.260Z,75807.38
2023-05-01T14:34:43.757Z,75760.50
2023-05-01T14:37:11.494Z,75740.13
2023-05-01T14:39:39.475Z,75758.47
2023-05-01T14:42:06.074Z,75770.69
2023-05-01T14:44:32.640Z,75784.97
2023-05-01T14:47:00.286Z,75813.50
2023-05-01T14:49:26.911Z,75817.59
2023-05-01T14:51:53.757Z,75791.09
2023-05-01T14:54:21.076Z,75789.03
2023-05-01T14:56:48.951Z,75795.16
2023-05-01T14:59:16.215Z,75829.81
2023-05-01T15:01:43.836Z,75880.78
2023-05-01T15:04:11.709Z,75913.41
2023-05-01T15:06:38.443Z,75954.19
2023-05-01T15:09:05.257Z,75978.63
2023-05-01T15:11:31.748Z,75994.94
2023-05-01T15:13:58.095Z,76037.75
2023-05-01T15:16:24.547Z,76094.84
2023-05-01T15:18:50.965Z,76113.19
2023-05-01T15:21:18.088Z,76119.31
2023-05-01T15:23:46.030Z,76186.59
2023-05-01T15:26:12.400Z,76255.91
2023-05-01T15:28:38.800Z,76319.13
2023-05-01T15:31:05.814Z,76368.06
2023-05-01T15:33:32.299Z,76384.38
2023-05-01T15:35:58.699Z,76414.94
2023-05-01T15:38:25.994Z,76429.22
2023-05-01T15:40:52.458Z,76437.38
2023-05-01T15:43:19.086Z,76453.69
2023-05-01T15:45:45.718Z,76461.84
2023-05-01T15:48:12.384Z,76476.13
2023-05-01T15:50:38.820Z,76496.50
2023-05-01T15:53:05.173Z,76506.72
2023-05-01T15:55:31.555Z,76516.91
2023-05-01T15:57:57.912Z,76514.88
2023-05-01T16:00:25.066Z,76508.75
2023-05-01T16:02:51.648Z,76502.63
2023-05-01T16:05:21.105Z,76523.03
2023-05-01T16:07:53.085Z,76523.03
2023-05-01T16:10:19.509Z,76525.06
2023-05-01T16:12:46.340Z,76520.97
2023-05-01T16:15:14.515Z,76523.03
2023-05-01T16:17:45.503Z,76529.13
2023-05-01T16:20:13.098Z,76535.25
2023-05-01T16:22:41.699Z,76537.28
2023-05-01T16:25:09.734Z,76543.41
2023-05-01T16:27:41.010Z,76539.34
2023-05-01T16:30:08.892Z,76545.44
2023-05-01T16:32:35.667Z,76549.53
2023-05-01T16:35:03.451Z,76557.69
2023-05-01T16:37:30.058Z,76557.69
2023-05-01T16:39:59.492Z,76553.59
2023-05-01T16:42:26.152Z,76557.69
2023-05-01T16:44:52.547Z,76549.53
2023-05-01T16:47:19.040Z,76549.53
2023-05-01T16:49:46.562Z,76555.66
2023-05-01T16:52:13.349Z,76545.44
2023-05-01T16:54:39.699Z,76551.56
2023-05-01T16:57:06.150Z,76545.44
2023-05-01T16:59:32.904Z,76553.59
2023-05-01T17:01:59.350Z,76557.69
2023-05-01T17:04:25.978Z,76547.50
2023-05-01T17:06:52.544Z,76545.44
2023-05-01T17:09:19.040Z,76531.19
2023-05-01T17:11:56.551Z,76529.13
2023-05-01T17:14:23.127Z,76520.97
2023-05-01T17:16:50.426Z,76512.81
2023-05-01T17:19:17.039Z,76516.91
2023-05-01T17:21:43.427Z,76518.94
2023-05-01T17:24:09.803Z,76512.81
2023-05-01T17:26:36.560Z,76512.81
2023-05-01T17:29:03.549Z,76520.97
2023-05-01T17:31:30.022Z,76523.03
2023-05-01T17:33:56.461Z,76523.03
2023-05-01T17:36:23.734Z,76523.03
2023-05-01T17:38:50.324Z,76516.91
2023-05-01T17:41:16.868Z,76502.63
2023-05-01T17:43:44.700Z,76496.50
2023-05-01T17:46:11.662Z,76498.56
2023-05-01T17:48:38.019Z,76504.66
2023-05-01T17:51:04.373Z,76510.78
2023-05-01T17:53:30.837Z,76527.09
2023-05-01T17:55:58.197Z,76527.09
2023-05-01T17:58:24.728Z,76533.22
2023-05-01T18:00:51.184Z,76529.13
2023-05-01T18:03:17.633Z,76541.38
2023-05-01T18:05:44.880Z,76547.50
2023-05-01T18:08:11.248Z,76549.53
2023-05-01T18:10:37.662Z,76555.66
2023-05-01T18:13:04.061Z,76567.88
2023-05-01T18:15:30.438Z,76569.91
2023-05-01T18:17:56.854Z,76580.13
2023-05-01T18:20:23.722Z,76584.19
2023-05-01T18:22:50.628Z,76596.44
2023-05-01T18:25:17.202Z,76594.38
2023-05-01T18:27:45.576Z,76606.63
2023-05-01T18:30:12.153Z,76612.75
2023-05-01T18:32:47.750Z,76620.91
2023-05-01T18:35:16.445Z,76629.06
2023-05-01T18:37:43.719Z,76635.16
2023-05-01T18:40:10.401Z,76651.47
2023-05-01T18:42:36.763Z,76661.69
2023-05-01T18:45:03.893Z,76665.75
2023-05-01T18:47:32.264Z,76673.91
2023-05-01T18:49:59.131Z,76675.94
2023-05-01T18:52:25.858Z,76688.19
2023-05-01T18:54:52.184Z,76696.34
2023-05-01T18:57:18.585Z,76702.47
2023-05-01T18:59:45.043Z,76702.47
2023-05-01T19:02:11.570Z,76716.72
2023-05-01T19:04:49.369Z,76724.88
2023-05-01T19:07:22.919Z,76747.31
2023-05-01T19:09:49.326Z,76749.34
2023-05-01T19:12:16.326Z,76749.34
2023-05-01T19:14:42.743Z,76759.56
2023-05-01T19:17:09.542Z,76763.63
2023-05-01T19:19:35.881Z,76769.75
2023-05-01T19:22:02.218Z,76763.63
2023-05-01T19:24:28.552Z,76773.81
2023-05-01T19:26:54.938Z,76763.63
2023-05-01T19:29:21.265Z,76765.66
2023-05-01T19:31:47.713Z,76767.72
2023-05-01T19:34:14.246Z,76777.91
2023-05-01T19:36:40.723Z,76786.06
2023-05-01T19:39:07.048Z,76782.00
2023-05-01T19:41:33.497Z,76779.94
2023-05-01T19:43:59.824Z,76782.00
2023-05-01T19:46:26.352Z,76786.06
2023-05-01T19:48:52.733Z,76790.16
2023-05-01T19:51:19.069Z,76804.41
2023-05-01T19:53:45.418Z,76802.38
2023-05-01T19:56:11.726Z,76812.56
2023-05-01T19:58:38.780Z,76802.38
2023-05-01T20:01:08.325Z,76812.56
2023-05-01T20:03:34.936Z,76810.53
2023-05-01T20:06:01.357Z,76816.66
2023-05-01T20:08:27.770Z,76812.56
2023-05-01T20:10:54.827Z,76808.50
2023-05-01T20:13:21.150Z,76810.53
2023-05-01T20:15:47.504Z,76812.56
2023-05-01T20:18:14.088Z,76818.69
2023-05-01T20:20:40.564Z,76818.69
2023-05-01T20:23:11.089Z,76824.81
2023-05-01T20:25:37.492Z,76830.94
2023-05-01T20:28:04.429Z,76830.94
2023-05-01T20:30:30.821Z,76839.09
2023-05-01T20:32:58.718Z,76837.03
2023-05-01T20:35:25.083Z,76865.59
2023-05-01T20:37:51.433Z,76863.56
2023-05-01T20:40:18.598Z,76865.59
2023-05-01T20:42:45.032Z,76879.88
2023-05-01T20:45:11.595Z,76888.03
2023-05-01T20:47:37.960Z,76892.09
2023-05-01T20:50:04.588Z,76896.19
2023-05-01T20:52:30.985Z,76904.34
2023-05-01T20:54:57.312Z,76922.69
2023-05-01T20:57:23.656Z,76928.81
2023-05-01T20:59:50.096Z,76945.13
2023-05-01T21:02:17.060Z,76965.50
2023-05-01T21:04:43.652Z,76981.81
2023-05-01T21:07:10.081Z,76996.09
2023-05-01T21:09:36.713Z,76996.09
2023-05-01T21:12:07.072Z,77010.38
2023-05-01T21:14:33.440Z,77014.47
2023-05-01T21:17:00.397Z,77026.69
2023-05-01T21:19:27.351Z,77047.09
2023-05-01T21:21:55.274Z,77055.25
2023-05-01T21:24:25.610Z,77071.56
2023-05-01T21:26:54.882Z,77071.56
2023-05-01T21:29:21.325Z,77079.72
2023-05-01T21:31:48.897Z,77087.88
2023-05-01T21:34:18.483Z,77100.09
2023-05-01T21:36:45.011Z,77098.06
2023-05-01T21:39:12.074Z,77100.09
2023-05-01T21:41:40.273Z,77104.19
2023-05-01T21:44:07.246Z,77116.41
2023-05-01T21:46:35.808Z,77116.41
2023-05-01T21:49:02.401Z,77108.25
2023-05-01T21:51:28.917Z,77118.47
2023-05-01T21:53:55.665Z,77124.56
2023-05-01T21:56:24.877Z,77134.78
2023-05-01T21:58:51.711Z,77147.00
2023-05-01T22:01:21.169Z,77144.97
2023-05-01T22:03:48.182Z,77153.13
2023-05-01T22:06:14.660Z,77147.00
2023-05-01T22:08:41.819Z,77153.13
2023-05-01T22:11:08.662Z,77157.22
2023-05-01T22:13:35.048Z,77161.28
2023-05-01T22:16:01.543Z,77159.25
2023-05-01T22:18:29.276Z,77167.41
2023-05-01T22:20:55.863Z,77175.56
2023-05-01T22:23:22.239Z,77173.53
2023-05-01T22:25:48.696Z,77177.59
2023-05-01T22:28:17.557Z,77187.78
2023-05-01T22:30:44.312Z,77177.59
2023-05-01T22:33:10.746Z,77183.72
2023-05-01T22:35:37.123Z,77191.88
2023-05-01T22:38:03.534Z,77193.91
2023-05-01T22:40:29.958Z,77189.84
2023-05-01T22:42:56.280Z,77187.78
2023-05-01T22:45:22.603Z,77200.03
2023-05-01T22:47:48.970Z,77206.16
2023-05-01T22:50:15.755Z,77214.31
2023-05-01T22:52:42.545Z,77220.44
2023-05-01T22:55:10.324Z,77226.53
2023-05-01T22:57:36.628Z,77226.53
2023-05-01T23:00:03.290Z,77228.59
2023-05-01T23:02:29.872Z,77226.53
2023-05-01T23:04:56.251Z,77232.66
2023-05-01T23:07:22.567Z,77232.66
2023-05-01T23:09:48.881Z,77240.81
2023-05-01T23:12:19.666Z,77246.94
2023-05-01T23:14:46.829Z,77251.03
2023-05-01T23:17:14.565Z,77255.09
2023-05-01T23:19:43.209Z,77259.19
2023-05-01T23:22:10.898Z,77257.13
2023-05-01T23:24:43.229Z,77261.22
2023-05-01T23:27:11.651Z,77263.25
2023-05-01T23:29:40.173Z,77273.44
2023-05-01T23:32:17.152Z,77273.44
2023-05-01T23:34:43.606Z,77277.53
2023-05-01T23:37:09.926Z,77277.53
2023-05-01T23:39:36.234Z,77291.81
2023-05-01T23:42:02.613Z,77295.88
2023-05-01T23:44:29.594Z,77308.13
2023-05-01T23:46:55.991Z,77314.25
2023-05-01T23:49:22.329Z,77332.59
2023-05-01T23:51:48.869Z,77336.69
2023-05-01T23:54:15.183Z,77336.69
2023-05-01T23:56:41.490Z,77342.78
2023-05-01T23:59:08.010Z,77353.00
